Time;durP1;ratioP1;P1;durP2;ratioP2;P2;SDS_P1;SDS_P2;PMS_P1;PMS_P2;Temp;Humidity;BMP_temperature;BMP_pressure;BME280_temperature;BME280_humidity;BME280_pressure;Samples;Min_cycle;Max_cycle;Signal;HPM_P1;HPM_P2
2023/08/19 00:01:12;;;;;;;;;;;;;;;21.58;100.00;101176.81;5002006;28;19963;-82
2023/08/19 00:03:38;;;;;;;;;;;;;;;21.64;100.00;101190.81;5004932;28;19995;-81
2023/08/19 00:06:07;;;;;;;;;;;;;;;21.58;100.00;101192.38;5007395;28;20012;-78
2023/08/19 00:08:32;;;;;;;;;;;;;;;21.50;100.00;101186.97;5005362;28;19925;-80
2023/08/19 00:10:58;;;;;;;;;;;;;;;21.51;100.00;101185.94;5015282;28;19943;-80
2023/08/19 00:13:23;;;;;;;;;;;;;;;21.32;100.00;101184.56;5000365;28;19968;-81
2023/08/19 00:15:48;;;;;;;;;;;;;;;21.27;100.00;101183.22;4995482;28;19921;-81
2023/08/19 00:18:13;;;;;;;;;;;;;;;21.05;100.00;101159.50;5010609;28;19964;-81
2023/08/19 00:20:39;;;;;;;;;;;;;;;21.23;100.00;101179.16;5009008;28;20039;-80
2023/08/19 00:23:04;;;;;;;;;;;;;;;21.29;100.00;101183.03;4997399;28;19925;-81
2023/08/19 00:25:29;;;;;;;;;;;;;;;21.26;100.00;101184.25;5008503;28;19941;-81
2023/08/19 00:27:55;;;;;;;;;;;;;;;21.30;100.00;101183.91;5008959;28;19921;-80
2023/08/19 00:30:20;;;;;;;;;;;;;;;21.34;100.00;101183.34;5003514;28;20793;-81
2023/08/19 00:32:46;;;;;;;;;;;;;;;21.34;100.00;101180.59;5004134;28;19964;-81
2023/08/19 00:35:11;;;;;;;;;;;;;;;21.32;100.00;101182.66;5008038;28;19929;-82
2023/08/19 00:37:36;;;;;;;;;;;;;;;21.38;100.00;101183.81;5007413;28;19925;-79
2023/08/19 00:40:04;;;;;;;;;;;;;;;21.47;100.00;101190.91;5018119;28;19964;-80
2023/08/19 00:42:29;;;;;;;;;;;;;;;21.47;100.00;101181.84;5002220;28;21153;-81
2023/08/19 00:44:54;;;;;;;;;;;;;;;21.41;100.00;101176.13;5005718;28;20047;-81
2023/08/19 00:47:20;;;;;;;;;;;;;;;21.35;100.00;101174.13;4996485;28;20009;-83
2023/08/19 00:49:45;;;;;;;;;;;;;;;21.37;100.00;101179.38;5007748;28;20015;-83
2023/08/19 00:52:10;;;;;;;;;;;;;;;21.41;100.00;101186.19;5013929;28;20296;-82
2023/08/19 00:54:36;;;;;;;;;;;;;;;21.32;100.00;101188.13;4996669;28;19971;-84
2023/08/19 00:57:01;;;;;;;;;;;;;;;21.33;100.00;101181.63;5011730;28;19925;-84
2023/08/19 00:59:26;;;;;;;;;;;;;;;21.40;100.00;101185.34;5022829;28;19971;-82
2023/08/19 01:01:51;;;;;;;;;;;;;;;21.43;100.00;101186.84;5014019;28;20261;-83
2023/08/19 01:04:17;;;;;;;;;;;;;;;21.48;100.00;101186.28;4997996;28;20181;-84
2023/08/19 01:06:47;;;;;;;;;;;;;;;21.47;100.00;101182.72;4993835;28;19925;-82
2023/08/19 01:09:39;;;;;;;;;;;;;;;21.48;100.00;101183.56;5014165;28;19959;-82
2023/08/19 01:12:07;;;;;;;;;;;;;;;21.45;100.00;101183.97;5015309;28;19921;-83
2023/08/19 01:14:51;;;;;;;;;;;;;;;21.54;100.00;101186.44;5017966;28;19925;-82
2023/08/19 01:17:17;;;;;;;;;;;;;;;21.57;100.00;101183.34;5014856;28;19921;-82
2023/08/19 01:19:42;;;;;;;;;;;;;;;21.54;100.00;101182.84;5007165;28;20611;-82
2023/08/19 01:22:08;;;;;;;;;;;;;;;21.50;100.00;101171.44;5003379;28;20461;-82
2023/08/19 01:24:39;;;;;;;;;;;;;;;21.49;100.00;101174.34;5017016;28;19925;-82
2023/08/19 01:27:05;;;;;;;;;;;;;;;21.41;100.00;101167.94;5006457;28;19959;-82
2023/08/19 01:29:30;;;;;;;;;;;;;;;21.42;100.00;101166.91;5005974;28;19925;-81
2023/08/19 01:31:56;;;;;;;;;;;;;;;21.40;100.00;101171.69;5014022;28;19928;-82
2023/08/19 01:34:22;;;;;;;;;;;;;;;21.47;100.00;101168.19;4999938;28;19928;-81
2023/08/19 01:36:47;;;;;;;;;;;;;;;21.44;100.00;101163.97;5017453;28;20226;-82
2023/08/19 01:39:13;;;;;;;;;;;;;;;21.45;100.00;101162.09;5012296;28;19921;-82
2023/08/19 01:41:38;;;;;;;;;;;;;;;21.45;100.00;101162.09;4999817;28;19983;-82
2023/08/19 01:44:03;;;;;;;;;;;;;;;21.47;100.00;101163.59;5013446;28;19985;-81
2023/08/19 01:46:29;;;;;;;;;;;;;;;21.42;100.00;101164.16;5009402;28;20089;-82
2023/08/19 01:48:54;;;;;;;;;;;;;;;21.39;100.00;101155.47;5016480;28;19921;-82
2023/08/19 01:51:19;;;;;;;;;;;;;;;21.34;100.00;101164.22;5006605;28;20170;-82
2023/08/19 01:53:44;;;;;;;;;;;;;;;21.39;100.00;101158.19;5002596;28;19957;-83
2023/08/19 01:56:11;;;;;;;;;;;;;;;21.38;100.00;101151.03;5009788;28;20028;-83
2023/08/19 01:58:36;;;;;;;;;;;;;;;21.47;100.00;101146.34;5010957;28;19917;-82
2023/08/19 02:01:01;;;;;;;;;;;;;;;21.47;100.00;101143.63;5001694;28;19929;-84
2023/08/19 02:03:27;;;;;;;;;;;;;;;21.48;100.00;101146.19;5015315;28;19972;-83
2023/08/19 02:05:52;;;;;;;;;;;;;;;21.55;100.00;101136.22;5011896;28;20035;-82
2023/08/19 02:08:17;;;;;;;;;;;;;;;21.48;100.00;101123.47;5015978;28;19924;-81
2023/08/19 02:10:43;;;;;;;;;;;;;;;21.59;100.00;101139.44;5009349;28;20276;-83
2023/08/19 02:13:08;;;;;;;;;;;;;;;21.65;100.00;101138.72;5018303;28;20291;-82
2023/08/19 02:15:33;;;;;;;;;;;;;;;21.65;100.00;101144.19;5000350;28;20401;-83
2023/08/19 02:17:58;;;;;;;;;;;;;;;21.70;100.00;101136.28;4998336;28;19928;-83
2023/08/19 02:20:23;;;;;;;;;;;;;;;21.74;100.00;101142.22;5012375;28;19964;-82
2023/08/19 02:22:49;;;;;;;;;;;;;;;21.71;100.00;101132.53;4996068;28;19918;-82
2023/08/19 02:25:14;;;;;;;;;;;;;;;21.71;100.00;101131.66;5011309;28;19928;-82
2023/08/19 02:27:39;;;;;;;;;;;;;;;21.76;100.00;101133.81;5014519;28;20322;-82
2023/08/19 02:30:05;;;;;;;;;;;;;;;21.75;100.00;101126.66;5013206;28;19921;-81
2023/08/19 02:32:30;;;;;;;;;;;;;;;21.81;100.00;101129.50;5012797;28;20019;-82
2023/08/19 02:34:55;;;;;;;;;;;;;;;21.82;100.00;101131.22;5015562;28;19921;-83
2023/08/19 02:37:21;;;;;;;;;;;;;;;21.83;100.00;101121.13;4996193;28;20566;-83
2023/08/19 02:39:46;;;;;;;;;;;;;;;21.82;100.00;101122.16;5015831;28;20421;-82
2023/08/19 02:42:15;;;;;;;;;;;;;;;21.80;100.00;101122.34;5019128;28;19928;-82
2023/08/19 02:44:40;;;;;;;;;;;;;;;21.82;100.00;101120.28;5002983;28;19925;-83
2023/08/19 02:47:06;;;;;;;;;;;;;;;21.85;100.00;101124.50;4998671;28;19921;-82
2023/08/19 02:49:31;;;;;;;;;;;;;;;21.84;100.00;101123.69;5011077;28;19925;-83
2023/08/19 02:51:56;;;;;;;;;;;;;;;21.85;100.00;101116.31;5015496;28;19923;-83
2023/08/19 02:54:21;;;;;;;;;;;;;;;21.85;100.00;101119.03;5011602;28;19932;-81
2023/08/19 02:56:47;;;;;;;;;;;;;;;21.83;100.00;101108.31;4993923;28;19917;-83
2023/08/19 02:59:12;;;;;;;;;;;;;;;21.88;100.00;101114.03;5022668;28;19957;-82
2023/08/19 03:01:37;;;;;;;;;;;;;;;21.93;100.00;101109.91;4994677;28;19928;-82
2023/08/19 03:04:03;;;;;;;;;;;;;;;21.93;100.00;101118.09;4996699;28;19964;-86
2023/08/19 03:06:28;;;;;;;;;;;;;;;21.97;100.00;101109.34;5007542;28;19921;-82
2023/08/19 03:08:53;;;;;;;;;;;;;;;22.01;100.00;101098.88;5027865;28;19925;-84
2023/08/19 03:11:18;;;;;;;;;;;;;;;22.00;100.00;101102.66;4996532;28;19921;-82
2023/08/19 03:13:43;;;;;;;;;;;;;;;21.97;100.00;101094.81;5010266;28;20024;-82
2023/08/19 03:16:09;;;;;;;;;;;;;;;21.99;100.00;101104.50;5014238;28;19921;-82
2023/08/19 03:18:34;;;;;;;;;;;;;;;21.96;100.00;101102.19;5022937;28;20370;-86
2023/08/19 03:20:59;;;;;;;;;;;;;;;21.97;100.00;101098.41;4996166;28;20026;-86
2023/08/19 03:23:25;;;;;;;;;;;;;;;22.02;100.00;101112.34;4994534;28;19967;-81
2023/08/19 03:25:51;;;;;;;;;;;;;;;21.99;100.00;101107.25;5002150;28;19921;-81
2023/08/19 03:28:16;;;;;;;;;;;;;;;22.01;100.00;101107.91;4995972;28;19932;-83
2023/08/19 03:30:41;;;;;;;;;;;;;;;22.05;100.00;101092.00;5018513;28;20154;-85
2023/08/19 03:33:06;;;;;;;;;;;;;;;22.08;100.00;101097.09;5006800;28;20023;-85
2023/08/19 03:35:33;;;;;;;;;;;;;;;22.08;100.00;101096.22;5011408;28;19925;-86
2023/08/19 03:37:58;;;;;;;;;;;;;;;21.95;100.00;101083.22;5010345;28;20400;-78
2023/08/19 03:40:23;;;;;;;;;;;;;;;22.05;100.00;101102.06;5007209;28;20203;-83
2023/08/19 03:42:48;;;;;;;;;;;;;;;22.06;100.00;101092.84;5005703;28;19940;-83
2023/08/19 03:45:14;;;;;;;;;;;;;;;22.03;100.00;101089.44;5027109;28;19991;-84
2023/08/19 03:47:39;;;;;;;;;;;;;;;21.99;100.00;101092.75;5024652;28;20020;-84
2023/08/19 03:50:04;;;;;;;;;;;;;;;21.99;100.00;101099.03;5012731;28;20141;-84
2023/08/19 03:52:30;;;;;;;;;;;;;;;22.03;100.00;101102.28;5016236;28;20480;-83
2023/08/19 03:54:55;;;;;;;;;;;;;;;21.99;100.00;101104.50;5002787;28;19921;-83
2023/08/19 03:57:20;;;;;;;;;;;;;;;22.02;100.00;101103.31;5008362;28;20231;-84
2023/08/19 03:59:48;;;;;;;;;;;;;;;21.98;100.00;101091.88;4994401;28;19921;-84
2023/08/19 04:02:13;;;;;;;;;;;;;;;22.02;100.00;101089.63;5008613;28;20008;-84
2023/08/19 04:04:43;;;;;;;;;;;;;;;22.02;100.00;101089.63;5011417;28;19960;-83
2023/08/19 04:07:08;;;;;;;;;;;;;;;21.99;100.00;101100.94;4994791;28;19924;-83
2023/08/19 04:09:33;;;;;;;;;;;;;;;21.96;100.00;101104.91;5009863;28;19921;-82
2023/08/19 04:11:59;;;;;;;;;;;;;;;22.05;100.00;101094.72;5009151;28;20210;-83
2023/08/19 04:14:24;;;;;;;;;;;;;;;22.06;100.00;101093.69;5009561;28;19927;-83
2023/08/19 04:16:49;;;;;;;;;;;;;;;22.06;100.00;101095.56;5014174;28;19924;-83
2023/08/19 04:19:14;;;;;;;;;;;;;;;21.98;100.00;101102.00;4995488;28;19917;-84
2023/08/19 04:21:40;;;;;;;;;;;;;;;21.99;100.00;101098.22;4993981;28;20216;-84
2023/08/19 04:24:05;;;;;;;;;;;;;;;22.00;100.00;101089.81;4990571;28;19977;-81
2023/08/19 04:26:30;;;;;;;;;;;;;;;22.07;100.00;101089.94;4995456;28;19921;-83
2023/08/19 04:28:55;;;;;;;;;;;;;;;22.14;100.00;101081.81;4995437;28;19921;-83
2023/08/19 04:31:21;;;;;;;;;;;;;;;22.00;100.00;101088.97;4996181;28;19961;-81
2023/08/19 04:33:46;;;;;;;;;;;;;;;22.00;100.00;101094.44;4994586;28;20015;-83
2023/08/19 04:36:12;;;;;;;;;;;;;;;22.00;100.00;101094.44;4996016;28;19951;-83
2023/08/19 04:38:37;;;;;;;;;;;;;;;21.98;100.00;101093.78;5009138;28;19924;-83
2023/08/19 04:41:02;;;;;;;;;;;;;;;22.01;100.00;101104.34;5009877;28;19968;-82
2023/08/19 04:43:28;;;;;;;;;;;;;;;22.00;100.00;101103.47;5012628;28;20035;-83
2023/08/19 04:45:54;;;;;;;;;;;;;;;21.94;100.00;101108.84;5001672;28;19999;-83
2023/08/19 04:48:19;;;;;;;;;;;;;;;21.92;100.00;101105.47;5014112;28;20332;-83
2023/08/19 04:50:45;;;;;;;;;;;;;;;21.91;100.00;101109.22;5013370;28;22190;-83
2023/08/19 04:53:10;;;;;;;;;;;;;;;21.94;100.00;101111.59;5008176;28;19925;-83
2023/08/19 04:55:35;;;;;;;;;;;;;;;21.92;100.00;101116.41;4996910;28;20244;-82
2023/08/19 04:58:00;;;;;;;;;;;;;;;21.91;100.00;101120.16;5012418;28;20007;-83
2023/08/19 05:00:26;;;;;;;;;;;;;;;21.85;100.00;101117.13;5015419;28;20048;-83
2023/08/19 05:02:51;;;;;;;;;;;;;;;21.85;100.00;101119.03;5024087;28;19924;-81
2023/08/19 05:05:16;;;;;;;;;;;;;;;21.89;100.00;101117.63;4996231;28;19921;-84
2023/08/19 05:07:41;;;;;;;;;;;;;;;21.80;100.00;101119.63;5003181;28;21247;-81
2023/08/19 05:10:07;;;;;;;;;;;;;;;21.81;100.00;101128.66;4995848;28;20511;-82
2023/08/19 05:12:33;;;;;;;;;;;;;;;21.84;100.00;101122.81;5001030;28;20290;-83
2023/08/19 05:14:58;;;;;;;;;;;;;;;21.83;100.00;101123.84;5016384;28;19921;-83
2023/08/19 05:17:23;;;;;;;;;;;;;;;21.86;100.00;101123.47;5009063;28;20221;-83
2023/08/19 05:19:48;;;;;;;;;;;;;;;21.83;100.00;101126.56;5011475;28;20011;-81
2023/08/19 05:22:13;;;;;;;;;;;;;;;21.89;100.00;101123.09;5013011;28;19963;-83
2023/08/19 05:24:39;;;;;;;;;;;;;;;21.94;100.00;101126.13;5009937;28;19997;-83
2023/08/19 05:27:04;;;;;;;;;;;;;;;21.85;100.00;101117.13;5013080;28;19920;-82
2023/08/19 05:29:30;;;;;;;;;;;;;;;21.96;100.00;101120.47;5012234;28;19917;-84
2023/08/19 05:31:57;;;;;;;;;;;;;;;22.00;100.00;101117.16;5008567;28;20156;-83
2023/08/19 05:34:22;;;;;;;;;;;;;;;22.01;100.00;101120.75;5010769;28;19951;-84
2023/08/19 05:36:48;;;;;;;;;;;;;;;22.06;100.00;101120.16;4999001;28;19995;-84
2023/08/19 05:39:13;;;;;;;;;;;;;;;22.09;100.00;101117.94;5010667;28;19948;-84
2023/08/19 05:41:38;;;;;;;;;;;;;;;22.12;100.00;101122.16;4996476;28;19921;-84
2023/08/19 05:44:04;;;;;;;;;;;;;;;22.12;100.00;101130.34;5010590;28;20367;-83
2023/08/19 05:46:29;;;;;;;;;;;;;;;22.09;100.00;101139.81;5010420;28;19921;-80
2023/08/19 05:48:55;;;;;;;;;;;;;;;22.13;100.00;101138.34;5015887;28;20354;-83
2023/08/19 05:51:20;;;;;;;;;;;;;;;22.13;100.00;101134.78;5010231;28;19984;-82
2023/08/19 05:53:45;;;;;;;;;;;;;;;22.16;100.00;101137.97;4996138;28;20019;-83
2023/08/19 05:56:11;;;;;;;;;;;;;;;22.17;100.00;101136.13;4994710;28;20176;-83
2023/08/19 05:58:37;;;;;;;;;;;;;;;22.17;100.00;101131.47;5008563;28;20321;-84
2023/08/19 06:01:08;;;;;;;;;;;;;;;22.18;100.00;101133.19;5031469;28;20146;-83
2023/08/19 06:03:33;;;;;;;;;;;;;;;22.16;100.00;101140.72;5029062;28;19960;-80
2023/08/19 06:06:05;;;;;;;;;;;;;;;22.22;100.00;101151.94;5016022;28;20032;-79
2023/08/19 06:08:30;;;;;;;;;;;;;;;22.25;100.00;101146.94;5009412;28;19921;-82
2023/08/19 06:11:01;;;;;;;;;;;;;;;22.26;100.00;101142.31;5010132;28;19921;-82
2023/08/19 06:13:27;;;;;;;;;;;;;;;22.30;100.00;101146.38;5022112;28;20024;-80
2023/08/19 06:15:52;;;;;;;;;;;;;;;22.37;100.00;101141.84;5013117;28;19940;-83
2023/08/19 06:18:17;;;;;;;;;;;;;;;22.43;100.00;101127.44;5014528;28;19921;-83
2023/08/19 06:20:42;;;;;;;;;;;;;;;22.49;100.00;101135.91;5011032;28;20209;-83
2023/08/19 06:23:09;;;;;;;;;;;;;;;22.58;100.00;101127.41;5006925;28;20393;-84
2023/08/19 06:25:34;;;;;;;;;;;;;;;22.60;100.00;101130.78;5011210;28;19929;-84
2023/08/19 06:28:00;;;;;;;;;;;;;;;22.63;100.00;101137.78;4996598;28;19921;-83
2023/08/19 06:30:25;;;;;;;;;;;;;;;22.68;100.00;101138.03;5012105;28;19928;-84
2023/08/19 06:32:50;;;;;;;;;;;;;;;22.73;100.00;101126.53;5010472;28;19928;-83
2023/08/19 06:35:16;;;;;;;;;;;;;;;22.75;100.00;101133.50;4995059;28;19921;-84
2023/08/19 06:37:41;;;;;;;;;;;;;;;22.80;100.00;101140.28;5009159;28;19917;-83
2023/08/19 06:40:08;;;;;;;;;;;;;;;22.88;100.00;101140.16;5011284;28;19921;-83
2023/08/19 06:42:34;;;;;;;;;;;;;;;22.97;100.00;101143.63;5012637;28;20018;-83
2023/08/19 06:44:59;;;;;;;;;;;;;;;22.97;100.00;101151.84;5010863;28;20038;-81
2023/08/19 06:47:25;;;;;;;;;;;;;;;23.09;100.00;101147.53;4997190;28;20012;-83
2023/08/19 06:49:50;;;;;;;;;;;;;;;23.04;100.00;101148.13;4995891;28;20063;-84
2023/08/19 06:52:15;;;;;;;;;;;;;;;23.10;100.00;101162.06;4998797;28;19925;-85
2023/08/19 06:54:41;;;;;;;;;;;;;;;23.15;100.00;101163.19;5012470;28;20322;-86
2023/08/19 06:57:07;;;;;;;;;;;;;;;23.13;100.00;101169.91;5010360;28;20334;-82
2023/08/19 06:59:37;;;;;;;;;;;;;;;23.15;100.00;101170.56;5010991;28;20015;-84
2023/08/19 07:02:02;;;;;;;;;;;;;;;23.10;100.00;101173.88;5032460;28;19932;-85
2023/08/19 07:04:29;;;;;;;;;;;;;;;23.22;100.00;101171.50;4999893;28;19952;-85
2023/08/19 07:06:54;;;;;;;;;;;;;;;23.31;100.00;101166.72;5012444;28;20142;-84
2023/08/19 07:09:21;;;;;;;;;;;;;;;23.37;100.00;101174.16;5012890;28;20126;-86
2023/08/19 07:11:46;;;;;;;;;;;;;;;23.41;100.00;101169.16;4997178;28;20011;-83
2023/08/19 07:14:11;;;;;;;;;;;;;;;23.49;100.00;101178.06;5002188;28;20314;-82
2023/08/19 07:16:36;;;;;;;;;;;;;;;23.61;100.00;101175.66;5008059;28;20331;-81
2023/08/19 07:19:03;;;;;;;;;;;;;;;23.71;100.00;101172.56;5011190;28;20636;-85
2023/08/19 07:21:28;;;;;;;;;;;;;;;23.81;100.00;101173.06;5008098;28;20283;-85
2023/08/19 07:23:54;;;;;;;;;;;;;;;23.90;100.00;101175.63;5022299;28;19921;-86
2023/08/19 07:26:19;;;;;;;;;;;;;;;23.95;100.00;101176.75;5000853;28;19929;-81
2023/08/19 07:28:45;;;;;;;;;;;;;;;24.04;100.00;101182.97;4994186;28;20347;-84
2023/08/19 07:31:11;;;;;;;;;;;;;;;24.10;100.00;101190.34;4995679;28;20455;-81
2023/08/19 07:33:36;;;;;;;;;;;;;;;24.21;100.00;101194.47;5006753;28;20399;-82
2023/08/19 07:36:01;;;;;;;;;;;;;;;24.26;100.00;101189.19;5009355;28;20631;-83
2023/08/19 07:38:27;;;;;;;;;;;;;;;24.41;100.00;101190.97;5011613;28;20114;-81
2023/08/19 07:40:52;;;;;;;;;;;;;;;24.50;100.00;101194.38;5019212;28;19929;-81
2023/08/19 07:43:17;;;;;;;;;;;;;;;24.62;100.00;101192.78;4992603;28;19968;-84
2023/08/19 07:45:42;;;;;;;;;;;;;;;24.88;100.00;101182.09;5009742;28;19983;-79
2023/08/19 07:48:08;;;;;;;;;;;;;;;25.15;100.00;101194.03;5007174;28;19932;-83
2023/08/19 07:50:34;;;;;;;;;;;;;;;25.39;100.00;101194.47;4994985;28;19925;-79
2023/08/19 07:52:59;;;;;;;;;;;;;;;25.59;100.00;101197.25;5009866;28;19921;-81
2023/08/19 07:55:24;;;;;;;;;;;;;;;25.75;100.00;101198.72;5008728;28;19921;-78
2023/08/19 07:57:49;;;;;;;;;;;;;;;25.94;100.00;101186.03;5004500;28;20409;-80
2023/08/19 08:00:15;;;;;;;;;;;;;;;26.11;100.00;101186.41;5007719;28;20016;-84
2023/08/19 08:02:40;;;;;;;;;;;;;;;26.08;100.00;101195.09;5021055;28;19913;-83
2023/08/19 08:05:06;;;;;;;;;;;;;;;25.94;100.00;101205.28;4991986;28;19953;-85
2023/08/19 08:07:31;;;;;;;;;;;;;;;25.97;100.00;101210.34;5006486;28;20207;-80
2023/08/19 08:09:56;;;;;;;;;;;;;;;26.17;100.00;101215.00;5003683;28;20020;-78
2023/08/19 08:12:21;;;;;;;;;;;;;;;26.25;100.00;101220.28;5008672;28;20346;-82
2023/08/19 08:14:47;;;;;;;;;;;;;;;26.27;100.00;101206.31;5010960;28;20414;-78
2023/08/19 08:17:12;;;;;;;;;;;;;;;26.48;100.00;101216.19;5014306;28;19928;-76
2023/08/19 08:19:38;;;;;;;;;;;;;;;26.62;100.00;101203.22;5023222;28;19971;-78
2023/08/19 08:22:03;;;;;;;;;;;;;;;26.50;100.00;101208.56;4999490;28;19929;-78
2023/08/19 08:24:29;;;;;;;;;;;;;;;26.55;100.00;101218.94;5010309;28;19975;-82
2023/08/19 08:26:54;;;;;;;;;;;;;;;26.39;100.00;101215.59;5001394;28;19979;-83
2023/08/19 08:29:19;;;;;;;;;;;;;;;26.33;100.00;101217.31;5014456;28;20016;-81
2023/08/19 08:31:44;;;;;;;;;;;;;;;26.16;100.00;101219.69;5001046;28;20048;-81
2023/08/19 08:34:10;;;;;;;;;;;;;;;26.18;100.00;101202.94;5000079;28;19921;-84
2023/08/19 08:36:35;;;;;;;;;;;;;;;26.17;100.00;101209.50;5015633;28;19956;-85
2023/08/19 08:39:00;;;;;;;;;;;;;;;26.13;100.00;101217.34;5009540;28;19967;-84
2023/08/19 08:41:25;;;;;;;;;;;;;;;25.95;100.00;101228.16;5017616;28;20050;-79
2023/08/19 08:43:50;;;;;;;;;;;;;;;25.97;100.00;101243.38;5010713;28;19925;-78
2023/08/19 08:46:16;;;;;;;;;;;;;;;26.01;100.00;101230.88;5013248;28;19926;-80
2023/08/19 08:48:41;;;;;;;;;;;;;;;25.99;100.00;101229.38;5032334;28;19962;-81
2023/08/19 08:51:06;;;;;;;;;;;;;;;26.10;100.00;101217.75;5009270;28;19913;-81
2023/08/19 08:53:32;;;;;;;;;;;;;;;25.96;100.00;101246.31;5007250;28;20370;-82
2023/08/19 08:55:57;;;;;;;;;;;;;;;25.94;100.00;101252.03;4993195;28;20218;-86
2023/08/19 08:58:22;;;;;;;;;;;;;;;25.92;100.00;101269.81;5024796;28;20012;-78
2023/08/19 09:00:48;;;;;;;;;;;;;;;25.86;100.00;101279.75;5013606;28;20303;-82
2023/08/19 09:03:13;;;;;;;;;;;;;;;25.84;100.00;101284.59;4995569;28;19925;-80
2023/08/19 09:05:38;;;;;;;;;;;;;;;25.84;100.00;101279.97;5010747;28;19921;-80
2023/08/19 09:08:05;;;;;;;;;;;;;;;25.79;100.00;101276.16;4996759;28;19986;-81
2023/08/19 09:10:30;;;;;;;;;;;;;;;25.96;100.00;101268.31;5010337;28;19921;-79
2023/08/19 09:12:58;;;;;;;;;;;;;;;25.83;100.00;101281.03;5003730;28;19928;-80
2023/08/19 09:15:24;;;;;;;;;;;;;;;25.98;100.00;101268.94;5011652;28;19921;-78
2023/08/19 09:17:50;;;;;;;;;;;;;;;26.01;100.00;101283.16;5013214;28;19932;-79
2023/08/19 09:20:15;;;;;;;;;;;;;;;25.88;100.00;101296.88;5011753;28;19924;-78
2023/08/19 09:22:42;;;;;;;;;;;;;;;25.81;100.00;101304.31;5014918;28;19928;-83
2023/08/19 09:25:07;;;;;;;;;;;;;;;25.68;100.00;101324.38;5024984;28;19968;-86
2023/08/19 09:27:32;;;;;;;;;;;;;;;25.66;100.00;101313.56;5010853;28;20412;-85
2023/08/19 09:29:58;;;;;;;;;;;;;;;25.70;100.00;101323.09;4998371;28;19921;-84
2023/08/19 09:32:27;;;;;;;;;;;;;;;25.69;100.00;101320.59;4997316;28;20020;-84
2023/08/19 09:35:05;;;;;;;;;;;;;;;25.87;100.00;101322.69;5012276;28;19920;-81
2023/08/19 09:37:31;;;;;;;;;;;;;;;26.00;100.00;101317.22;5009581;28;20031;-81
2023/08/19 09:39:56;;;;;;;;;;;;;;;26.01;100.00;101307.91;5008587;28;20051;-83
2023/08/19 09:42:21;;;;;;;;;;;;;;;26.17;100.00;101320.44;5024887;28;20380;-82
2023/08/19 09:44:46;;;;;;;;;;;;;;;26.43;100.00;101312.34;5024919;28;19959;-81
2023/08/19 09:47:12;;;;;;;;;;;;;;;26.74;100.00;101316.31;4996809;28;20030;-81
2023/08/19 09:49:37;;;;;;;;;;;;;;;26.90;100.00;101317.78;4998862;28;20495;-81
2023/08/19 09:52:02;;;;;;;;;;;;;;;27.07;100.00;101321.72;5013361;28;19925;-82
2023/08/19 09:54:28;;;;;;;;;;;;;;;27.23;100.00;101325.91;5004630;28;20249;-82
2023/08/19 09:56:55;;;;;;;;;;;;;;;27.40;100.00;101328.16;4997445;28;20371;-75
2023/08/19 09:59:20;;;;;;;;;;;;;;;27.23;100.00;101328.66;4997268;28;20003;-79
2023/08/19 10:01:45;;;;;;;;;;;;;;;27.23;100.00;101330.59;4998094;28;19939;-80
2023/08/19 10:04:10;;;;;;;;;;;;;;;27.23;100.00;101336.09;4997278;28;19925;-79
2023/08/19 10:06:36;;;;;;;;;;;;;;;27.50;100.00;101336.00;4998598;28;19921;-76
2023/08/19 10:09:05;;;;;;;;;;;;;;;27.66;100.00;101331.88;5023781;28;19931;-83
2023/08/19 10:11:31;;;;;;;;;;;;;;;27.72;100.00;101336.47;5007107;28;20062;-79
2023/08/19 10:13:58;;;;;;;;;;;;;;;28.04;100.00;101339.22;5024697;28;19922;-80
2023/08/19 10:16:24;;;;;;;;;;;;;;;27.98;100.00;101353.91;5012366;28;19932;-80
2023/08/19 10:18:49;;;;;;;;;;;;;;;28.15;100.00;101357.00;5008315;28;20015;-78
2023/08/19 10:21:14;;;;;;;;;;;;;;;28.10;100.00;101365.06;5007795;28;19917;-76
2023/08/19 10:23:40;;;;;;;;;;;;;;;27.78;100.00;101376.97;5023926;28;20206;-77
2023/08/19 10:26:06;;;;;;;;;;;;;;;27.90;100.00;101373.50;5012319;28;19932;-78
2023/08/19 10:28:32;;;;;;;;;;;;;;;27.97;100.00;101369.63;4995436;28;19940;-77
2023/08/19 10:31:07;;;;;;;;;;;;;;;28.09;100.00;101369.75;5021746;28;19979;-79
2023/08/19 10:33:39;;;;;;;;;;;;;;;28.31;100.00;101374.09;5009678;28;19924;-75
2023/08/19 10:36:04;;;;;;;;;;;;;;;28.36;100.00;101379.75;5006265;28;20008;-75
2023/08/19 10:38:39;;;;;;;;;;;;;;;28.34;100.00;101360.66;4999420;28;20077;-77
2023/08/19 10:41:04;;;;;;;;;;;;;;;28.55;100.00;101370.47;5007822;28;19948;-76
2023/08/19 10:43:49;;;;;;;;;;;;;;;28.73;100.00;101379.84;5016679;28;19925;-73
2023/08/19 10:46:20;;;;;;;;;;;;;;;28.79;100.00;101378.97;5010620;28;19978;-74
2023/08/19 10:48:46;;;;;;;;;;;;;;;28.89;100.00;101378.44;5005820;28;20047;-75
2023/08/19 10:51:11;;;;;;;;;;;;;;;29.14;100.00;101381.09;5004868;28;19921;-75
2023/08/19 10:53:36;;;;;;;;;;;;;;;29.27;100.00;101391.16;5007206;28;20304;-80
2023/08/19 10:56:02;;;;;;;;;;;;;;;29.14;100.00;101394.09;5006341;28;20350;-76
2023/08/19 10:58:27;;;;;;;;;;;;;;;28.98;100.00;101396.41;5006684;28;20385;-78
2023/08/19 11:00:53;;;;;;;;;;;;;;;28.70;100.00;101408.78;5003499;28;19921;-77
2023/08/19 11:03:18;;;;;;;;;;;;;;;28.58;100.00;101411.44;5007606;28;20008;-78
2023/08/19 11:05:50;;;;;;;;;;;;;;;28.23;100.00;101430.41;5010174;28;19935;-76
2023/08/19 11:08:15;;;;;;;;;;;;;;;28.00;100.00;101434.56;5021404;28;20092;-79
2023/08/19 11:10:40;;;;;;;;;;;;;;;27.65;100.00;101434.97;5005980;28;20351;-77
2023/08/19 11:13:06;;;;;;;;;;;;;;;27.44;100.00;101441.59;5007464;28;19921;-74
2023/08/19 11:15:31;;;;;;;;;;;;;;;27.42;100.00;101446.50;5006617;28;19929;-76
2023/08/19 11:17:56;;;;;;;;;;;;;;;27.44;100.00;101444.38;4991332;28;19982;-74
2023/08/19 11:20:26;;;;;;;;;;;;;;;27.40;100.00;101455.81;5003360;28;19925;-76
2023/08/19 11:22:51;;;;;;;;;;;;;;;27.36;100.00;101460.06;4994057;28;19921;-73
2023/08/19 11:25:17;;;;;;;;;;;;;;;27.17;100.00;101467.31;5004808;28;19953;-73
2023/08/19 11:27:42;;;;;;;;;;;;;;;27.07;100.00;101475.22;5016663;28;20059;-72
2023/08/19 11:30:11;;;;;;;;;;;;;;;26.91;100.00;101490.28;4991376;28;20441;-74
2023/08/19 11:32:36;;;;;;;;;;;;;;;26.75;100.00;101497.03;5017263;28;19921;-76
2023/08/19 11:35:02;;;;;;;;;;;;;;;26.48;100.00;101502.50;5019385;28;19936;-76
2023/08/19 11:37:28;;;;;;;;;;;;;;;26.27;100.00;101509.88;5008823;28;20244;-75
2023/08/19 11:39:54;;;;;;;;;;;;;;;26.31;100.00;101513.94;5006705;28;19927;-76
2023/08/19 11:42:19;;;;;;;;;;;;;;;26.17;100.00;101523.19;5004397;28;19925;-76
2023/08/19 11:44:44;;;;;;;;;;;;;;;25.95;100.00;101536.22;4999176;28;20359;-76
2023/08/19 11:47:10;;;;;;;;;;;;;;;25.95;100.00;101542.56;5004898;28;20973;-76
2023/08/19 11:49:36;;;;;;;;;;;;;;;25.95;100.00;101556.31;4992884;28;20007;-75
2023/08/19 11:52:01;;;;;;;;;;;;;;;25.96;100.00;101577.28;5003433;28;19925;-75
2023/08/19 11:54:26;;;;;;;;;;;;;;;25.97;100.00;101575.34;5016437;28;19961;-74
2023/08/19 11:56:55;;;;;;;;;;;;;;;26.04;100.00;101571.59;5006245;28;20352;-72
2023/08/19 11:59:32;;;;;;;;;;;;;;;26.09;100.00;101572.88;5005150;28;19952;-73
2023/08/19 12:01:58;;;;;;;;;;;;;;;25.92;100.00;101575.97;5003114;28;19917;-75
2023/08/19 12:04:23;;;;;;;;;;;;;;;25.91;100.00;101582.53;5007280;28;19925;-74
2023/08/19 12:06:49;;;;;;;;;;;;;;;25.80;100.00;101599.63;5002212;28;19947;-71
2023/08/19 12:09:17;;;;;;;;;;;;;;;25.64;100.00;101611.78;4998367;28;20358;-71
2023/08/19 12:11:46;;;;;;;;;;;;;;;25.57;100.00;101600.72;5006519;28;19967;-75
2023/08/19 12:14:11;;;;;;;;;;;;;;;25.64;100.00;101596.13;4987000;28;19956;-73
2023/08/19 12:16:36;;;;;;;;;;;;;;;25.51;100.00;101598.81;5006462;28;20103;-75
2023/08/19 12:19:01;;;;;;;;;;;;;;;25.36;100.00;101609.88;5001623;28;19921;-75
2023/08/19 12:21:27;;;;;;;;;;;;;;;25.41;100.00;101624.69;5000313;28;19925;-76